createdAt,value
2022-12-09T00:00:33.520Z,75.45
2022-12-09T00:01:41.052Z,75.27
2022-12-09T00:02:44.828Z,75.45
2022-12-09T00:03:49.042Z,75.95
2022-12-09T00:04:54.921Z,76.34
2022-12-09T00:05:59.938Z,75.95
2022-12-09T00:07:10.337Z,75.80
2022-12-09T00:08:16.429Z,75.64
2022-12-09T00:09:20.750Z,75.97
2022-12-09T00:10:24.563Z,75.81
2022-12-09T00:11:28.480Z,75.49
2022-12-09T00:12:32.068Z,75.54
2022-12-09T00:13:36.487Z,75.41
2022-12-09T00:14:40.185Z,75.50
2022-12-09T00:15:44.016Z,75.28
2022-12-09T00:16:47.836Z,75.55
2022-12-09T00:17:52.340Z,75.36
2022-12-09T00:18:57.648Z,75.50
2022-12-09T00:20:01.598Z,75.32
2022-12-09T00:21:29.713Z,75.24
2022-12-09T00:22:36.403Z,75.34
2022-12-09T00:23:42.392Z,75.27
2022-12-09T00:24:53.133Z,75.44
2022-12-09T00:26:13.514Z,75.20
2022-12-09T00:27:21.455Z,75.03
2022-12-09T00:28:26.572Z,75.48
2022-12-09T00:29:35.565Z,75.32
2022-12-09T00:30:42.440Z,75.08
2022-12-09T00:31:46.154Z,74.93
2022-12-09T00:32:50.037Z,75.42
2022-12-09T00:34:07.302Z,74.95
2022-12-09T00:35:21.473Z,75.09
2022-12-09T00:36:31.691Z,75.15
2022-12-09T00:37:36.441Z,75.05
2022-12-09T00:38:56.347Z,75.28
2022-12-09T00:40:00.507Z,75.40
2022-12-09T00:41:29.448Z,75.55
2022-12-09T00:42:42.269Z,75.58
2022-12-09T00:44:03.227Z,75.40
2022-12-09T00:45:16.126Z,75.44
2022-12-09T00:46:26.063Z,74.89
2022-12-09T00:48:58.302Z,74.63
2022-12-09T00:50:09.132Z,74.96
2022-12-09T00:51:29.616Z,75.20
2022-12-09T00:52:33.596Z,75.38
2022-12-09T00:53:41.179Z,75.45
2022-12-09T00:54:51.781Z,75.56
2022-12-09T00:56:02.279Z,75.79
2022-12-09T00:57:15.358Z,75.89
2022-12-09T00:58:31.339Z,75.84
2022-12-09T00:59:47.789Z,75.55
2022-12-09T01:00:58.499Z,75.72
2022-12-09T01:02:15.841Z,75.85
2022-12-09T01:03:24.187Z,75.97
2022-12-09T01:04:28.061Z,76.08
2022-12-09T01:05:36.849Z,76.40
2022-12-09T01:06:53.388Z,76.31
2022-12-09T01:07:57.443Z,76.84
2022-12-09T01:09:14.008Z,76.60
2022-12-09T01:10:52.182Z,77.16
2022-12-09T01:12:13.208Z,78.69
2022-12-09T01:13:19.500Z,78.74
2022-12-09T01:14:27.891Z,78.20
2022-12-09T01:15:41.033Z,78.64
2022-12-09T01:16:45.744Z,78.89
2022-12-09T01:17:56.131Z,78.84
2022-12-09T01:19:05.127Z,78.55
2022-12-09T01:20:15.096Z,79.64
2022-12-09T01:21:20.337Z,78.93
2022-12-09T01:22:26.947Z,79.15
2022-12-09T01:23:36.548Z,79.42
2022-12-09T01:24:41.630Z,79.42
2022-12-09T01:25:52.829Z,79.08
2022-12-09T01:26:56.388Z,79.34
2022-12-09T01:28:00.980Z,79.24
2022-12-09T01:29:18.126Z,79.09
2022-12-09T01:30:30.205Z,78.99
2022-12-09T01:31:39.974Z,78.82
2022-12-09T01:32:55.520Z,79.69
2022-12-09T01:33:59.392Z,79.55
2022-12-09T01:35:08.105Z,79.36
2022-12-09T01:36:29.066Z,79.31
2022-12-09T01:37:35.252Z,79.06
2022-12-09T01:38:57.637Z,79.33
2022-12-09T01:40:20.287Z,79.74
2022-12-09T01:41:26.358Z,79.77
2022-12-09T01:42:34.645Z,79.66
2022-12-09T01:43:42.219Z,79.85
2022-12-09T01:45:32.805Z,79.64
2022-12-09T01:46:46.941Z,79.81
2022-12-09T01:48:16.708Z,79.74
2022-12-09T01:49:57.207Z,80.06
2022-12-09T01:51:16.965Z,79.84
2022-12-09T01:52:27.451Z,79.60
2022-12-09T01:53:41.639Z,79.54
2022-12-09T01:54:54.709Z,79.73
2022-12-09T01:56:11.418Z,79.65
2022-12-09T01:57:18.755Z,79.60
2022-12-09T01:58:29.770Z,79.58
2022-12-09T01:59:36.846Z,79.42
2022-12-09T02:00:46.977Z,79.55
2022-12-09T02:02:00.244Z,79.58
2022-12-09T02:03:17.299Z,79.28
2022-12-09T02:04:28.234Z,79.07
2022-12-09T02:05:32.436Z,78.95
2022-12-09T02:06:41.027Z,79.20
2022-12-09T02:07:44.676Z,78.84
2022-12-09T02:08:51.466Z,79.04
2022-12-09T02:09:55.112Z,79.19
2022-12-09T02:11:06.907Z,78.86
2022-12-09T02:12:24.418Z,78.97
2022-12-09T02:13:37.567Z,79.05
2022-12-09T02:15:18.628Z,79.00
2022-12-09T02:16:30.742Z,78.77
2022-12-09T02:17:56.050Z,78.65
2022-12-09T02:20:02.025Z,79.00
2022-12-09T02:21:49.825Z,78.78
2022-12-09T02:23:44.720Z,78.44
2022-12-09T02:25:43.892Z,78.42
2022-12-09T02:27:20.826Z,78.55
2022-12-09T02:28:40.411Z,78.25
2022-12-09T02:30:19.509Z,78.65
2022-12-09T02:32:06.131Z,78.80
2022-12-09T02:33:36.721Z,78.42
2022-12-09T02:35:04.238Z,78.24
2022-12-09T02:36:26.776Z,78.38
2022-12-09T02:37:59.545Z,78.41
2022-12-09T02:39:04.026Z,78.29
2022-12-09T02:40:46.636Z,78.59
2022-12-09T02:42:07.076Z,78.31
2022-12-09T02:43:13.783Z,78.23
2022-12-09T02:44:23.681Z,78.27
2022-12-09T02:45:31.707Z,78.03
2022-12-09T02:46:36.980Z,78.04
2022-12-09T02:47:48.889Z,78.35
2022-12-09T02:48:57.922Z,78.52
2022-12-09T02:50:14.306Z,78.62
2022-12-09T02:51:22.607Z,78.54
2022-12-09T02:52:28.393Z,78.83
2022-12-09T02:53:37.580Z,79.08
2022-12-09T02:54:43.910Z,78.73
2022-12-09T02:55:50.481Z,78.79
2022-12-09T02:57:03.988Z,79.05
2022-12-09T02:58:07.954Z,78.87
2022-12-09T02:59:35.622Z,79.11
2022-12-09T03:00:49.295Z,78.94
2022-12-09T03:02:49.724Z,78.84
2022-12-09T03:03:55.882Z,78.81
2022-12-09T03:05:53.556Z,79.12
2022-12-09T03:07:31.746Z,79.00
2022-12-09T03:09:02.622Z,79.55
2022-12-09T03:10:23.010Z,79.71
2022-12-09T03:11:33.599Z,79.72
2022-12-09T03:12:44.023Z,79.76
2022-12-09T03:14:12.583Z,80.32
2022-12-09T03:15:30.215Z,80.52
2022-12-09T03:16:55.297Z,80.72
2022-12-09T03:20:01.045Z,80.91
2022-12-09T03:21:09.736Z,80.88
2022-12-09T03:22:27.940Z,81.16
2022-12-09T03:23:43.851Z,81.24
2022-12-09T03:25:20.762Z,81.29
2022-12-09T03:26:33.330Z,81.09
2022-12-09T03:28:21.321Z,81.69
2022-12-09T03:29:32.219Z,81.67
2022-12-09T03:30:45.479Z,81.70
2022-12-09T03:32:09.295Z,82.13
2022-12-09T03:33:29.847Z,81.88
2022-12-09T03:34:48.078Z,82.24
2022-12-09T03:35:58.327Z,82.30
2022-12-09T03:38:32.765Z,82.58
2022-12-09T03:39:19.967Z,82.45
2022-12-09T03:40:43.459Z,82.50
2022-12-09T03:41:57.303Z,82.34
2022-12-09T03:43:37.805Z,82.34
2022-12-09T03:45:08.289Z,82.09
2022-12-09T03:46:33.060Z,82.15
2022-12-09T03:47:53.035Z,82.51
2022-12-09T03:49:16.687Z,82.24
2022-12-09T03:50:34.966Z,82.49
2022-12-09T03:52:08.709Z,82.33
2022-12-09T03:53:22.682Z,82.34
2022-12-09T03:54:40.893Z,82.10
2022-12-09T03:56:48.118Z,82.33
2022-12-09T03:58:09.131Z,82.83
2022-12-09T03:59:29.500Z,82.72
2022-12-09T04:00:40.000Z,82.80
2022-12-09T04:01:58.266Z,82.86
2022-12-09T04:03:08.881Z,83.02
2022-12-09T04:04:17.913Z,82.74
2022-12-09T04:05:24.480Z,82.77
2022-12-09T04:06:29.385Z,83.00
2022-12-09T04:07:32.925Z,82.74
2022-12-09T04:08:37.192Z,83.07
2022-12-09T04:09:42.575Z,82.67
2022-12-09T04:10:47.022Z,82.79
2022-12-09T04:11:50.916Z,83.13
2022-12-09T04:12:54.603Z,82.95
2022-12-09T04:14:02.566Z,83.01
2022-12-09T04:15:07.787Z,83.35
2022-12-09T04:16:11.787Z,83.25
2022-12-09T04:17:15.468Z,83.32
2022-12-09T04:18:19.052Z,83.19
2022-12-09T04:19:22.551Z,83.28
2022-12-09T04:20:26.377Z,83.31
2022-12-09T04:21:30.093Z,83.26
2022-12-09T04:22:33.593Z,83.34
2022-12-09T04:23:42.509Z,83.16
2022-12-09T04:24:46.789Z,83.63
2022-12-09T04:25:50.491Z,83.52
2022-12-09T04:27:00.176Z,83.61
2022-12-09T04:28:04.200Z,83.59
2022-12-09T04:29:19.912Z,83.89
2022-12-09T04:30:23.543Z,83.70
2022-12-09T04:31:27.504Z,84.00
2022-12-09T04:32:32.047Z,83.89
2022-12-09T04:33:35.744Z,83.68
2022-12-09T04:34:39.464Z,83.92
2022-12-09T04:35:43.096Z,83.74
2022-12-09T04:36:46.512Z,83.56
2022-12-09T04:37:50.403Z,83.68
2022-12-09T04:38:57.145Z,83.74
2022-12-09T04:40:00.648Z,83.63
2022-12-09T04:41:05.684Z,83.38
2022-12-09T04:42:10.422Z,83.49
2022-12-09T04:43:14.619Z,83.64
2022-12-09T04:44:18.335Z,83.75
2022-12-09T04:45:22.121Z,83.61
2022-12-09T04:46:26.770Z,83.98
2022-12-09T04:47:30.385Z,83.83
2022-12-09T04:48:34.267Z,84.38
2022-12-09T04:49:38.227Z,84.21
2022-12-09T04:50:45.418Z,84.09
2022-12-09T04:51:52.642Z,84.56
2022-12-09T04:52:59.071Z,84.18
2022-12-09T04:54:03.101Z,84.20
2022-12-09T04:55:07.835Z,84.28
2022-12-09T04:56:19.065Z,84.62
2022-12-09T04:57:23.699Z,84.77
2022-12-09T04:58:28.429Z,84.84
2022-12-09T04:59:32.453Z,84.90
2022-12-09T05:00:36.177Z,84.83
2022-12-09T05:01:40.159Z,84.91
2022-12-09T05:02:44.781Z,84.69
2022-12-09T05:03:51.947Z,84.64
2022-12-09T05:04:56.315Z,84.61
2022-12-09T05:06:02.745Z,84.59
2022-12-09T05:07:06.916Z,84.69
2022-12-09T05:08:10.923Z,84.88
2022-12-09T05:09:15.277Z,84.82
2022-12-09T05:10:19.607Z,84.70
2022-12-09T05:11:24.973Z,84.69
2022-12-09T05:12:28.715Z,84.81
2022-12-09T05:13:34.325Z,84.83
2022-12-09T05:14:38.412Z,84.60
2022-12-09T05:15:42.403Z,84.84
2022-12-09T05:16:46.856Z,84.92
2022-12-09T05:17:50.629Z,84.63
2022-12-09T05:18:54.700Z,84.67
2022-12-09T05:19:58.618Z,84.58
2022-12-09T05:21:11.988Z,84.67
2022-12-09T05:22:19.516Z,84.62
2022-12-09T05:23:23.797Z,84.82
2022-12-09T05:24:27.843Z,84.78
2022-12-09T05:25:34.010Z,84.53
2022-12-09T05:26:40.048Z,85.14
2022-12-09T05:27:44.067Z,84.90
2022-12-09T05:28:48.272Z,84.68
2022-12-09T05:29:52.562Z,84.97
2022-12-09T05:31:04.871Z,85.00
2022-12-09T05:32:10.777Z,85.34
2022-12-09T05:33:15.887Z,85.32
2022-12-09T05:34:19.855Z,85.21
2022-12-09T05:35:23.748Z,85.20
2022-12-09T05:36:27.816Z,85.02
2022-12-09T05:37:32.296Z,84.94
2022-12-09T05:38:36.486Z,85.09
2022-12-09T05:39:40.277Z,85.36
2022-12-09T05:40:43.823Z,85.10
2022-12-09T05:41:47.951Z,85.40
2022-12-09T05:42:51.834Z,85.40
2022-12-09T05:43:56.633Z,85.12
2022-12-09T05:45:01.199Z,85.42
2022-12-09T05:46:06.815Z,85.46
2022-12-09T05:47:11.369Z,85.59
2022-12-09T05:48:18.714Z,85.69
2022-12-09T05:49:36.393Z,85.41
2022-12-09T05:50:41.159Z,85.65
2022-12-09T05:51:59.799Z,85.61
2022-12-09T05:53:14.609Z,85.51
2022-12-09T05:54:20.938Z,85.44
2022-12-09T05:55:25.014Z,85.94
2022-12-09T05:56:29.191Z,85.98
2022-12-09T05:57:35.306Z,85.73
2022-12-09T05:58:39.235Z,86.03
2022-12-09T05:59:43.147Z,86.19
2022-12-09T06:00:47.782Z,86.04
2022-12-09T06:01:51.689Z,86.17
2022-12-09T06:02:55.258Z,86.36
2022-12-09T06:03:59.001Z,86.44
2022-12-09T06:05:03.415Z,86.55
2022-12-09T06:06:31.487Z,86.50
2022-12-09T06:07:36.631Z,86.32
2022-12-09T06:08:42.749Z,86.46
2022-12-09T06:09:47.312Z,86.51
2022-12-09T06:10:51.581Z,86.40
2022-12-09T06:11:55.274Z,86.61
2022-12-09T06:12:58.935Z,86.46
2022-12-09T06:14:02.838Z,86.97
2022-12-09T06:15:10.454Z,86.95
2022-12-09T06:16:19.921Z,87.77
2022-12-09T06:17:24.184Z,87.29
2022-12-09T06:18:27.774Z,87.37
2022-12-09T06:19:31.854Z,87.60
2022-12-09T06:20:38.905Z,87.49
2022-12-09T06:21:43.098Z,87.83
2022-12-09T06:22:46.909Z,88.06
2022-12-09T06:23:51.654Z,87.95
2022-12-09T06:24:57.343Z,87.90
2022-12-09T06:26:00.896Z,87.79
2022-12-09T06:27:05.243Z,87.50
2022-12-09T06:28:09.346Z,87.52
2022-12-09T06:29:13.474Z,87.40
2022-12-09T06:30:17.397Z,87.61
2022-12-09T06:31:21.358Z,87.58
2022-12-09T06:32:26.055Z,87.69
2022-12-09T06:33:53.639Z,87.43
2022-12-09T06:34:53.755Z,87.36
2022-12-09T06:36:02.827Z,87.56
2022-12-09T06:37:06.410Z,87.73
2022-12-09T06:38:10.327Z,88.03
2022-12-09T06:39:14.381Z,87.67
2022-12-09T06:40:18.089Z,87.83
2022-12-09T06:41:21.950Z,87.46
2022-12-09T06:42:25.918Z,87.87
2022-12-09T06:43:30.108Z,87.83
2022-12-09T06:44:34.352Z,87.61
2022-12-09T06:45:38.919Z,87.55
2022-12-09T06:46:42.912Z,87.49
2022-12-09T06:47:48.305Z,87.88
2022-12-09T06:48:53.880Z,87.66
2022-12-09T06:50:06.533Z,87.85
2022-12-09T06:51:11.987Z,87.92
2022-12-09T06:52:15.960Z,88.10
2022-12-09T06:53:19.481Z,88.01
2022-12-09T06:54:23.705Z,88.32
2022-12-09T06:55:30.035Z,88.15
2022-12-09T06:56:34.020Z,88.36
2022-12-09T06:57:37.630Z,88.52
2022-12-09T06:58:45.079Z,88.64
2022-12-09T06:59:49.549Z,88.29
2022-12-09T07:00:53.275Z,88.28
2022-12-09T07:01:58.854Z,88.28
2022-12-09T07:03:02.844Z,88.26
2022-12-09T07:04:08.472Z,88.22
2022-12-09T07:05:13.021Z,88.50
2022-12-09T07:06:42.777Z,88.66
2022-12-09T07:07:54.611Z,88.67
2022-12-09T07:09:08.141Z,88.73
2022-12-09T07:10:12.204Z,88.55
2022-12-09T07:11:16.139Z,88.81
2022-12-09T07:12:20.738Z,88.56
2022-12-09T07:13:25.323Z,88.82
2022-12-09T07:14:28.892Z,88.42
2022-12-09T07:15:32.751Z,88.44
2022-12-09T07:16:37.477Z,88.50
2022-12-09T07:17:41.430Z,88.27
2022-12-09T07:18:45.479Z,88.10
2022-12-09T07:19:51.414Z,88.22
2022-12-09T07:20:55.220Z,88.31
2022-12-09T07:21:59.816Z,88.26
2022-12-09T07:23:03.581Z,88.56
2022-12-09T07:24:12.656Z,88.63
2022-12-09T07:25:16.320Z,88.84
2022-12-09T07:26:21.374Z,88.80
2022-12-09T07:27:25.108Z,88.64
2022-12-09T07:28:29.898Z,88.54
2022-12-09T07:29:35.399Z,88.41
2022-12-09T07:30:39.107Z,88.17
2022-12-09T07:31:43.240Z,88.43
2022-12-09T07:32:47.311Z,87.99
2022-12-09T07:33:53.553Z,88.12
2022-12-09T07:34:57.897Z,88.10
2022-12-09T07:36:01.749Z,88.01
2022-12-09T07:37:07.289Z,87.92
2022-12-09T07:38:10.952Z,88.09
2022-12-09T07:39:18.703Z,87.90
2022-12-09T07:40:22.252Z,88.22
2022-12-09T07:41:27.403Z,87.97
2022-12-09T07:42:31.296Z,87.92
2022-12-09T07:43:39.210Z,88.13
2022-12-09T07:44:43.068Z,88.25
2022-12-09T07:45:46.638Z,88.02
2022-12-09T07:46:52.158Z,87.97
2022-12-09T07:47:56.400Z,87.74
2022-12-09T07:49:04.837Z,87.81
2022-12-09T07:50:09.211Z,87.73
2022-12-09T07:51:12.827Z,87.80
2022-12-09T07:52:16.458Z,87.61
2022-12-09T07:53:19.989Z,87.84
2022-12-09T07:54:23.897Z,87.68
2022-12-09T07:55:28.199Z,87.63
2022-12-09T07:56:32.200Z,87.77
2022-12-09T07:57:38.445Z,87.80
2022-12-09T07:58:44.757Z,87.60
2022-12-09T07:59:48.785Z,87.50
2022-12-09T08:00:52.676Z,87.64
2022-12-09T08:02:01.092Z,87.47
2022-12-09T08:03:08.127Z,87.53
2022-12-09T08:04:13.157Z,87.49
2022-12-09T08:05:17.712Z,87.31
2022-12-09T08:06:26.164Z,87.28
2022-12-09T08:07:31.069Z,87.15
2022-12-09T08:08:35.685Z,87.34
2022-12-09T08:09:39.583Z,87.01
2022-12-09T08:10:44.682Z,87.01
2022-12-09T08:11:48.624Z,87.18
2022-12-09T08:12:52.453Z,87.14
2022-12-09T08:14:08.856Z,86.97
2022-12-09T08:15:17.052Z,86.61
2022-12-09T08:16:23.747Z,86.45
2022-12-09T08:17:29.794Z,86.90
2022-12-09T08:18:42.924Z,86.86
2022-12-09T08:19:46.884Z,86.59
2022-12-09T08:20:50.954Z,86.76
2022-12-09T08:21:54.993Z,86.66
2022-12-09T08:22:59.190Z,86.50
2022-12-09T08:24:06.043Z,86.24
2022-12-09T08:25:11.298Z,86.00
2022-12-09T08:26:19.214Z,85.98
2022-12-09T08:27:23.271Z,85.57
2022-12-09T08:28:27.667Z,85.73
2022-12-09T08:29:31.374Z,85.87
2022-12-09T08:30:37.658Z,85.62
2022-12-09T08:31:44.256Z,85.21
2022-12-09T08:32:48.553Z,85.12
2022-12-09T08:33:53.835Z,85.44
2022-12-09T08:34:57.688Z,85.01
2022-12-09T08:36:04.588Z,84.87
2022-12-09T08:37:08.671Z,84.90
2022-12-09T08:38:13.082Z,84.62
2022-12-09T08:39:16.927Z,84.58
2022-12-09T08:40:20.451Z,84.62
2022-12-09T08:41:38.490Z,84.39
2022-12-09T08:42:43.112Z,84.23
2022-12-09T08:43:48.374Z,84.03
2022-12-09T08:44:57.131Z,84.20
2022-12-09T08:46:08.697Z,84.43
2022-12-09T08:47:12.478Z,84.42
2022-12-09T08:48:16.780Z,84.42
2022-12-09T08:49:23.418Z,84.16
2022-12-09T08:50:27.395Z,84.24
2022-12-09T08:51:32.494Z,84.16
2022-12-09T08:52:40.901Z,84.26
2022-12-09T08:53:48.905Z,84.02
2022-12-09T08:54:53.010Z,83.65
2022-12-09T08:55:57.097Z,83.82
2022-12-09T08:57:04.589Z,83.81
2022-12-09T08:58:08.496Z,83.53
2022-12-09T08:59:12.421Z,83.05
2022-12-09T09:00:17.510Z,83.22
2022-12-09T09:01:37.403Z,83.17
2022-12-09T09:02:41.443Z,82.98
2022-12-09T09:03:47.063Z,82.87
2022-12-09T09:04:51.021Z,82.89
2022-12-09T09:06:08.702Z,82.90
2022-12-09T09:07:14.390Z,82.64
2022-12-09T09:08:20.465Z,82.44
2022-12-09T09:09:27.164Z,82.55
2022-12-09T09:10:31.221Z,82.30
2022-12-09T09:11:35.734Z,82.49
2022-12-09T09:12:43.495Z,81.65
2022-12-09T09:13:51.755Z,81.63
2022-12-09T09:14:55.568Z,81.21
2022-12-09T09:15:59.359Z,81.42
2022-12-09T09:17:03.534Z,81.41
2022-12-09T09:18:07.742Z,80.95
2022-12-09T09:19:29.601Z,81.24
2022-12-09T09:20:33.628Z,81.37
2022-12-09T09:21:37.384Z,81.10
2022-12-09T09:22:41.697Z,81.23
2022-12-09T09:23:46.125Z,81.16
2022-12-09T09:24:51.245Z,80.79
2022-12-09T09:25:54.906Z,80.65
2022-12-09T09:26:58.875Z,80.62
2022-12-09T09:28:02.957Z,80.18
2022-12-09T09:29:08.587Z,79.79
2022-12-09T09:30:12.949Z,79.69
2022-12-09T09:31:21.212Z,79.37
2022-12-09T09:32:24.866Z,78.88
2022-12-09T09:33:29.940Z,79.45
2022-12-09T09:34:33.773Z,79.11
2022-12-09T09:35:37.947Z,79.23
2022-12-09T09:36:42.382Z,78.80
2022-12-09T09:37:46.489Z,78.91
2022-12-09T09:38:57.620Z,78.61
2022-12-09T09:40:02.603Z,78.81
2022-12-09T09:41:48.751Z,78.36
2022-12-09T09:42:56.833Z,78.36
2022-12-09T09:44:02.028Z,78.21
2022-12-09T09:45:15.226Z,76.64
2022-12-09T09:46:44.983Z,76.92
2022-12-09T09:47:56.730Z,76.55
2022-12-09T09:49:02.553Z,77.09
2022-12-09T09:50:27.731Z,77.25
2022-12-09T09:51:35.764Z,77.43
2022-12-09T09:52:42.820Z,77.36
2022-12-09T09:53:53.437Z,77.36
2022-12-09T09:54:58.686Z,77.02
2022-12-09T09:56:35.318Z,77.16
2022-12-09T09:58:00.261Z,77.18
2022-12-09T09:59:42.016Z,77.28
2022-12-09T10:01:08.538Z,76.69
2022-12-09T10:02:12.674Z,76.51
2022-12-09T10:03:48.743Z,75.98
2022-12-09T10:05:19.735Z,75.84
2022-12-09T10:06:50.899Z,75.78
2022-12-09T10:08:32.798Z,74.18
2022-12-09T10:10:15.683Z,74.45
2022-12-09T10:11:49.560Z,74.13
2022-12-09T10:13:08.224Z,74.15
2022-12-09T10:14:28.797Z,73.74
2022-12-09T10:16:06.392Z,74.09
2022-12-09T10:17:48.976Z,74.11
2022-12-09T10:19:20.681Z,72.81
2022-12-09T10:20:30.639Z,71.97
2022-12-09T10:21:42.627Z,72.27
2022-12-09T10:22:56.871Z,71.79
2022-12-09T10:24:48.488Z,70.05
2022-12-09T10:26:00.370Z,70.87
2022-12-09T10:27:35.099Z,70.87
2022-12-09T10:28:48.417Z,71.49
2022-12-09T10:30:03.603Z,71.10
2022-12-09T10:31:10.448Z,71.18
2022-12-09T10:32:20.663Z,70.68
2022-12-09T10:33:37.232Z,69.69
2022-12-09T10:34:44.471Z,69.54
2022-12-09T10:35:49.566Z,69.17
2022-12-09T10:36:53.802Z,69.31
2022-12-09T10:38:11.815Z,68.96
2022-12-09T10:39:22.020Z,69.69
2022-12-09T10:40:46.977Z,69.32
2022-12-09T10:42:18.161Z,68.87
2022-12-09T10:43:39.534Z,67.61
2022-12-09T10:44:43.907Z,68.44
2022-12-09T10:47:29.501Z,68.54
2022-12-09T10:48:49.423Z,68.61
2022-12-09T10:49:56.166Z,68.79
2022-12-09T10:51:17.639Z,68.21
2022-12-09T10:52:31.713Z,68.43
2022-12-09T10:53:36.162Z,68.46
2022-12-09T10:54:44.878Z,68.49
2022-12-09T10:55:54.784Z,68.13
2022-12-09T10:57:13.846Z,67.82
2022-12-09T10:58:31.810Z,66.98
2022-12-09T10:59:36.954Z,67.05
2022-12-09T11:00:57.674Z,67.51
2022-12-09T11:02:09.137Z,66.54
2022-12-09T11:03:31.558Z,66.49
2022-12-09T11:04:44.172Z,66.73
2022-12-09T11:06:03.257Z,66.13
2022-12-09T11:07:13.262Z,66.68
2022-12-09T11:08:23.156Z,66.65
2022-12-09T11:09:38.679Z,66.25
2022-12-09T11:10:51.207Z,65.75
2022-12-09T11:11:55.086Z,65.97
2022-12-09T11:13:08.990Z,66.26
2022-12-09T11:14:40.601Z,65.44
2022-12-09T11:15:54.540Z,65.50
2022-12-09T11:17:18.678Z,65.06
2022-12-09T11:18:47.134Z,65.45
2022-12-09T11:20:22.508Z,65.13
2022-12-09T11:21:37.878Z,65.33
2022-12-09T11:22:45.037Z,64.72
2022-12-09T11:24:02.511Z,64.66
2022-12-09T11:25:13.371Z,64.77
2022-12-09T11:26:35.075Z,64.28
2022-12-09T11:27:42.075Z,64.16
2022-12-09T11:28:45.992Z,64.44
2022-12-09T11:30:13.940Z,64.99
2022-12-09T11:31:30.564Z,64.04
2022-12-09T11:32:55.819Z,64.20
2022-12-09T11:34:14.413Z,64.34
2022-12-09T11:35:25.153Z,64.14
2022-12-09T11:36:44.386Z,63.56
2022-12-09T11:37:48.596Z,64.47
2022-12-09T11:39:09.674Z,64.69
2022-12-09T11:40:19.247Z,64.47
2022-12-09T11:41:44.993Z,64.03
2022-12-09T11:42:58.021Z,64.16
2022-12-09T11:44:02.717Z,64.38
2022-12-09T11:45:31.804Z,64.19
2022-12-09T11:46:36.943Z,64.27
2022-12-09T11:48:23.008Z,64.40
2022-12-09T11:49:17.296Z,64.15
2022-12-09T11:50:25.509Z,64.28
2022-12-09T11:52:18.944Z,63.72
2022-12-09T11:53:32.089Z,63.38
2022-12-09T11:54:58.757Z,63.38
2022-12-09T11:56:27.918Z,62.71
2022-12-09T11:57:43.452Z,62.67
2022-12-09T11:59:14.668Z,62.85
2022-12-09T12:00:21.075Z,62.54
2022-12-09T12:01:46.536Z,62.12
2022-12-09T12:03:20.848Z,61.85
2022-12-09T12:04:35.540Z,62.72
2022-12-09T12:05:47.913Z,62.96
2022-12-09T12:07:03.646Z,62.33
2022-12-09T12:08:43.831Z,62.49
2022-12-09T12:09:56.172Z,62.32
2022-12-09T12:11:14.903Z,62.70
2022-12-09T12:12:43.698Z,62.66
2022-12-09T12:13:49.482Z,63.00
2022-12-09T12:14:56.608Z,62.73
2022-12-09T12:16:13.911Z,62.53
2022-12-09T12:17:24.949Z,63.13
2022-12-09T12:18:36.403Z,63.10
2022-12-09T12:19:43.720Z,63.05
2022-12-09T12:21:17.167Z,62.18
2022-12-09T12:22:51.607Z,62.30
2022-12-09T12:24:28.573Z,62.80
2022-12-09T12:25:53.182Z,62.77
2022-12-09T12:27:15.123Z,62.31
2022-12-09T12:28:28.865Z,62.40
2022-12-09T12:29:48.604Z,62.45
2022-12-09T12:31:32.072Z,62.13
2022-12-09T12:34:54.679Z,62.35
2022-12-09T12:36:22.897Z,62.87
2022-12-09T12:38:03.275Z,62.66
2022-12-09T12:39:45.662Z,62.95
2022-12-09T12:41:26.243Z,63.18
2022-12-09T12:43:06.837Z,63.35
2022-12-09T12:44:47.538Z,63.40
2022-12-09T12:46:20.019Z,63.49
2022-12-09T12:47:45.239Z,63.52
2022-12-09T12:49:20.586Z,63.65
2022-12-09T12:51:24.944Z,64.03
2022-12-09T12:52:57.788Z,64.50
2022-12-09T12:54:48.961Z,64.64
2022-12-09T12:56:00.247Z,64.57
2022-12-09T12:57:22.348Z,64.96
2022-12-09T12:58:46.966Z,65.13
2022-12-09T13:00:24.557Z,65.49
2022-12-09T13:02:00.511Z,65.90
2022-12-09T13:03:26.209Z,65.93
2022-12-09T13:04:46.404Z,65.78
2022-12-09T13:05:54.437Z,66.36
2022-12-09T13:07:12.116Z,66.37
2022-12-09T13:08:35.598Z,66.58
2022-12-09T13:09:58.170Z,66.88
2022-12-09T13:11:22.748Z,67.20
2022-12-09T13:12:54.798Z,67.98
2022-12-09T13:14:06.587Z,67.98
2022-12-09T13:15:19.335Z,67.71
2022-12-09T13:16:39.589Z,67.94
2022-12-09T13:17:46.894Z,68.10
2022-12-09T13:18:50.848Z,68.00
2022-12-09T13:20:02.238Z,68.29
2022-12-09T13:21:07.603Z,68.35
2022-12-09T13:22:27.717Z,68.42
2022-12-09T13:23:57.348Z,69.26
2022-12-09T13:25:33.221Z,69.40
2022-12-09T13:27:26.952Z,69.52
2022-12-09T13:29:13.131Z,69.56
2022-12-09T13:30:27.305Z,69.47
2022-12-09T13:31:35.267Z,69.94
2022-12-09T13:33:12.854Z,69.73
2022-12-09T13:34:40.823Z,70.00
2022-12-09T13:36:15.149Z,69.71
2022-12-09T13:37:45.191Z,69.27
2022-12-09T13:38:49.156Z,69.40
2022-12-09T13:39:58.497Z,69.49
2022-12-09T13:41:30.725Z,69.29
2022-12-09T13:42:53.601Z,69.32
2022-12-09T13:44:11.727Z,69.36
2022-12-09T13:45:36.847Z,69.47
2022-12-09T13:46:47.644Z,69.62
2022-12-09T13:47:56.659Z,69.54
2022-12-09T13:49:11.945Z,69.16
2022-12-09T13:50:32.375Z,68.82
2022-12-09T13:51:48.958Z,68.99
2022-12-09T13:52:57.860Z,69.14
2022-12-09T13:54:04.570Z,68.79
2022-12-09T13:55:54.069Z,68.68
2022-12-09T13:57:39.891Z,68.80
2022-12-09T13:59:21.378Z,68.76
2022-12-09T14:00:25.218Z,68.68
2022-12-09T14:01:42.115Z,68.71
2022-12-09T14:03:12.384Z,68.55
2022-12-09T14:04:30.426Z,68.90
2022-12-09T14:05:37.295Z,68.80
2022-12-09T14:06:46.359Z,68.69
2022-12-09T14:08:07.256Z,68.75
2022-12-09T14:09:56.357Z,69.08
2022-12-09T14:11:52.799Z,69.49
2022-12-09T14:12:56.069Z,69.33
2022-12-09T14:14:24.957Z,69.98
2022-12-09T14:15:28.642Z,69.85
2022-12-09T14:16:35.046Z,69.63
2022-12-09T14:17:38.977Z,69.67
2022-12-09T14:18:43.520Z,69.60
2022-12-09T14:20:39.098Z,69.49
2022-12-09T14:21:42.686Z,69.72
2022-12-09T14:23:12.637Z,69.74
2022-12-09T14:24:16.901Z,69.83
2022-12-09T14:25:26.572Z,69.94
2022-12-09T14:26:59.272Z,69.83
2022-12-09T14:28:24.375Z,69.86
2022-12-09T14:29:50.124Z,69.72
2022-12-09T14:31:04.741Z,70.06
2022-12-09T14:32:42.250Z,69.80
2022-12-09T14:33:47.538Z,70.53
2022-12-09T14:35:11.429Z,71.04
2022-12-09T14:36:14.856Z,71.17
2022-12-09T14:37:53.384Z,71.25
2022-12-09T14:39:27.493Z,71.80
2022-12-09T14:41:36.616Z,72.04
2022-12-09T14:42:53.354Z,72.60
2022-12-09T14:44:27.070Z,73.56
2022-12-09T14:46:02.009Z,73.95
2022-12-09T14:47:31.339Z,73.82
2022-12-09T14:48:41.070Z,73.67
2022-12-09T14:49:49.077Z,74.38
2022-12-09T14:51:21.769Z,75.14
2022-12-09T14:52:33.131Z,74.93
2022-12-09T14:53:38.464Z,74.87
2022-12-09T14:54:48.508Z,74.62
2022-12-09T14:55:52.476Z,74.94
2022-12-09T14:57:00.964Z,75.08
2022-12-09T14:58:05.603Z,75.48
2022-12-09T14:59:18.390Z,75.48
2022-12-09T15:00:41.807Z,75.92
2022-12-09T15:02:00.106Z,75.75
2022-12-09T15:03:33.349Z,76.40
2022-12-09T15:04:47.574Z,76.72
2022-12-09T15:06:02.931Z,77.33
2022-12-09T15:07:08.307Z,77.46
2022-12-09T15:08:35.853Z,78.01
2022-12-09T15:10:02.471Z,78.08
2022-12-09T15:11:20.302Z,78.51
2022-12-09T15:12:45.323Z,78.66
2022-12-09T15:13:53.977Z,79.25
2022-12-09T15:15:04.005Z,79.88
2022-12-09T15:16:12.375Z,80.01
2022-12-09T15:17:33.090Z,80.35
2022-12-09T15:18:40.616Z,80.77
2022-12-09T15:20:00.799Z,80.80
2022-12-09T15:21:08.502Z,81.03
2022-12-09T15:22:24.568Z,81.41
2022-12-09T15:23:34.807Z,81.83
2022-12-09T15:24:50.052Z,81.84
2022-12-09T15:25:57.715Z,82.39
2022-12-09T15:27:03.956Z,82.27
2022-12-09T15:28:25.889Z,82.38
2022-12-09T15:29:33.914Z,82.90
2022-12-09T15:30:38.424Z,82.46
2022-12-09T15:31:50.045Z,82.59
2022-12-09T15:32:53.481Z,82.89
2022-12-09T15:34:14.484Z,82.96
2022-12-09T15:35:26.578Z,84.23
2022-12-09T15:36:40.298Z,84.05
2022-12-09T15:37:45.542Z,84.56
2022-12-09T15:39:20.552Z,85.65
2022-12-09T15:40:29.543Z,85.31
2022-12-09T15:42:09.636Z,85.44
2022-12-09T15:43:15.835Z,86.08
2022-12-09T15:44:24.110Z,86.05
2022-12-09T15:45:37.339Z,85.88
2022-12-09T15:46:45.357Z,86.88
2022-12-09T15:48:18.169Z,86.52
2022-12-09T15:49:29.486Z,86.50
2022-12-09T15:50:49.869Z,86.44
2022-12-09T15:51:56.563Z,86.24